KR-0466 weather

Youngdong Beach Tower Apartments Heliports
Busan, Busan Gwang'yeogsi, South Korea

Public forecast

Using degrees Celsius for public forecast. Weather courtesy of forecast.io.

Closest aviation weather report (METAR) to Youngdong Beach Tower Apartments Heliports

Closest report is Gimhae International Airport, 7.6 nm (14.1 km) NNW. Retrieved 2020/07/07 23:00 UTC (24 minutes ago):

RKPK 072300Z 31006KT CAVOK 25/20 Q1004

Closest aviation forecast (TAF) to Youngdong Beach Tower Apartments Heliports

Closest forecast is Gimhae International Airport, 7.6 nm (14.1 km) NNW. Retrieved 2020/07/07 18:00 UTC (5 hours ago):

TAF RKPK 071700Z 0718/0824 33006KT 9000 BKN015 TN22/0721Z TX30/0806Z BECMG 0720/0721 9999 SCT030 BECMG 0801/0802 18010KT BECMG 0811/0812 33006KT